createdAt,value
2022-12-26T00:00:21.662Z,5.20
2022-12-26T00:01:25.728Z,5.21
2022-12-26T00:02:27.526Z,5.20
2022-12-26T00:03:30.616Z,5.17
2022-12-26T00:04:48.871Z,5.11
2022-12-26T00:05:54.129Z,5.02
2022-12-26T00:06:55.738Z,4.96
2022-12-26T00:07:57.349Z,4.97
2022-12-26T00:09:01.390Z,5.00
2022-12-26T00:10:03.158Z,5.03
2022-12-26T00:11:04.787Z,5.01
2022-12-26T00:12:06.472Z,4.98
2022-12-26T00:13:38.332Z,4.93
2022-12-26T00:14:29.603Z,4.89
2022-12-26T00:15:31.211Z,4.85
2022-12-26T00:16:32.941Z,4.77
2022-12-26T00:17:34.526Z,4.69
2022-12-26T00:18:36.097Z,4.60
2022-12-26T00:19:37.926Z,4.47
2022-12-26T00:20:39.499Z,4.36
2022-12-26T00:21:41.684Z,4.35
2022-12-26T00:22:43.281Z,4.38
2022-12-26T00:23:45.256Z,4.36
2022-12-26T00:24:47.817Z,4.33
2022-12-26T00:25:49.368Z,4.33
2022-12-26T00:26:50.883Z,4.34
2022-12-26T00:27:52.656Z,4.39
2022-12-26T00:28:55.590Z,4.41
2022-12-26T00:29:57.175Z,4.43
2022-12-26T00:30:59.051Z,4.39
2022-12-26T00:32:02.095Z,4.33
2022-12-26T00:33:03.751Z,4.36
2022-12-26T00:34:05.300Z,4.40
2022-12-26T00:35:07.247Z,4.44
2022-12-26T00:36:18.830Z,4.46
2022-12-26T00:37:20.491Z,4.40
2022-12-26T00:38:22.063Z,4.38
2022-12-26T00:39:23.675Z,4.31
2022-12-26T00:40:25.259Z,4.22
2022-12-26T00:41:27.222Z,4.18
2022-12-26T00:42:29.002Z,4.17
2022-12-26T00:43:31.165Z,4.23
2022-12-26T00:44:32.681Z,4.31
2022-12-26T00:45:34.275Z,4.35
2022-12-26T00:46:35.905Z,4.35
2022-12-26T00:47:37.445Z,4.39
2022-12-26T00:48:39.024Z,4.45
2022-12-26T00:50:14.211Z,4.51
2022-12-26T00:51:02.260Z,4.56
2022-12-26T00:52:03.953Z,4.59
2022-12-26T00:53:05.669Z,4.62
2022-12-26T00:54:07.182Z,4.62
2022-12-26T00:55:09.235Z,4.65
2022-12-26T00:56:10.909Z,4.66
2022-12-26T00:57:12.647Z,4.63
2022-12-26T00:58:14.232Z,4.64
2022-12-26T00:59:15.814Z,4.65
2022-12-26T01:00:17.475Z,4.64
2022-12-26T01:01:22.812Z,4.63
2022-12-26T01:02:39.856Z,4.61
2022-12-26T01:03:42.831Z,4.61
2022-12-26T01:04:44.484Z,4.65
2022-12-26T01:05:48.422Z,4.46
2022-12-26T01:06:49.984Z,4.31
2022-12-26T01:08:22.369Z,4.12
2022-12-26T01:09:15.142Z,4.08
2022-12-26T01:10:16.759Z,4.02
2022-12-26T01:11:38.311Z,3.99
2022-12-26T01:12:39.949Z,4.02
2022-12-26T01:13:42.805Z,4.06
2022-12-26T01:14:44.529Z,4.07
2022-12-26T01:15:51.255Z,4.07
2022-12-26T01:16:52.974Z,4.08
2022-12-26T01:17:54.600Z,4.06
2022-12-26T01:18:56.204Z,4.09
2022-12-26T01:19:57.814Z,4.08
2022-12-26T01:21:05.726Z,4.11
2022-12-26T01:22:07.367Z,4.12
2022-12-26T01:23:08.967Z,4.12
2022-12-26T01:24:10.535Z,4.13
2022-12-26T01:25:12.197Z,4.14
2022-12-26T01:26:17.737Z,4.19
2022-12-26T01:27:22.605Z,4.22
2022-12-26T01:28:24.261Z,4.18
2022-12-26T01:29:26.366Z,4.15
2022-12-26T01:30:28.102Z,4.15
2022-12-26T01:31:29.799Z,4.16
2022-12-26T01:32:31.366Z,4.19
2022-12-26T01:33:33.525Z,4.17
2022-12-26T01:34:35.097Z,4.15
2022-12-26T01:35:36.695Z,4.09
2022-12-26T01:36:38.310Z,4.09
2022-12-26T01:37:39.923Z,4.02
2022-12-26T01:38:41.488Z,3.95
2022-12-26T01:39:43.090Z,3.92
2022-12-26T01:40:45.305Z,3.92
2022-12-26T01:41:47.488Z,3.90
2022-12-26T01:42:49.042Z,3.82
2022-12-26T01:44:02.325Z,3.77
2022-12-26T01:45:17.313Z,3.73
2022-12-26T01:46:44.147Z,3.58
2022-12-26T01:47:54.130Z,3.42
2022-12-26T01:48:59.644Z,3.32
2022-12-26T01:50:01.712Z,3.33
2022-12-26T01:51:06.469Z,3.32
2022-12-26T01:52:13.653Z,3.32
2022-12-26T01:53:42.456Z,3.34
2022-12-26T01:54:48.565Z,3.32
2022-12-26T01:55:59.374Z,3.40
2022-12-26T01:57:04.901Z,3.41
2022-12-26T01:58:14.534Z,3.39
2022-12-26T01:59:22.181Z,3.27
2022-12-26T02:00:23.844Z,3.21
2022-12-26T02:01:33.399Z,3.14
2022-12-26T02:02:55.815Z,3.08
2022-12-26T02:04:16.850Z,3.12
2022-12-26T02:05:34.148Z,3.20
2022-12-26T02:06:35.876Z,3.27
2022-12-26T02:07:40.801Z,3.29
2022-12-26T02:08:45.034Z,3.30
2022-12-26T02:09:46.656Z,3.29
2022-12-26T02:11:18.641Z,3.31
2022-12-26T02:12:34.683Z,3.35
2022-12-26T02:13:40.015Z,3.36
2022-12-26T02:14:43.766Z,3.31
2022-12-26T02:15:45.834Z,3.30
2022-12-26T02:16:48.032Z,3.26
2022-12-26T02:17:49.722Z,3.20
2022-12-26T02:18:51.294Z,3.19
2022-12-26T02:19:52.770Z,3.22
2022-12-26T02:21:14.876Z,3.19
2022-12-26T02:22:37.539Z,3.25
2022-12-26T02:24:06.986Z,3.20
2022-12-26T02:25:45.995Z,3.10
2022-12-26T02:27:09.189Z,3.12
2022-12-26T02:28:22.709Z,3.18
2022-12-26T02:29:24.157Z,3.24
2022-12-26T02:30:44.088Z,3.25
2022-12-26T02:31:57.781Z,3.13
2022-12-26T02:33:26.784Z,3.05
2022-12-26T02:34:46.981Z,3.14
2022-12-26T02:36:13.294Z,3.24
2022-12-26T02:37:31.023Z,3.33
2022-12-26T02:39:01.688Z,3.39
2022-12-26T02:40:32.568Z,3.42
2022-12-26T02:41:43.261Z,3.40
2022-12-26T02:43:06.064Z,3.43
2022-12-26T02:44:44.728Z,3.47
2022-12-26T02:46:34.132Z,3.54
2022-12-26T02:48:00.986Z,3.58
2022-12-26T02:50:16.710Z,3.61
2022-12-26T02:51:55.770Z,3.64
2022-12-26T02:53:57.681Z,3.67
2022-12-26T02:55:33.297Z,3.73
2022-12-26T02:56:56.134Z,3.76
2022-12-26T02:58:31.131Z,3.79
2022-12-26T03:00:16.324Z,3.81
2022-12-26T03:01:55.193Z,3.84
2022-12-26T03:03:21.315Z,3.86
2022-12-26T03:04:45.672Z,3.89
2022-12-26T03:06:15.182Z,3.93
2022-12-26T03:07:40.754Z,3.96
2022-12-26T03:09:18.827Z,3.97
2022-12-26T03:10:47.217Z,3.96
2022-12-26T03:12:13.740Z,3.96
2022-12-26T03:13:36.925Z,3.97
2022-12-26T03:14:41.463Z,3.96
2022-12-26T03:16:10.667Z,3.86
2022-12-26T03:17:23.061Z,3.79
2022-12-26T03:18:58.318Z,3.80
2022-12-26T03:20:09.053Z,3.76
2022-12-26T03:21:13.449Z,3.73
2022-12-26T03:22:30.584Z,3.72
2022-12-26T03:23:33.131Z,3.61
2022-12-26T03:24:54.813Z,3.44
2022-12-26T03:26:18.196Z,3.38
2022-12-26T03:27:19.800Z,3.43
2022-12-26T03:28:23.187Z,3.47
2022-12-26T03:29:43.257Z,3.51
2022-12-26T03:30:50.729Z,3.55
2022-12-26T03:31:53.008Z,3.57
2022-12-26T03:32:58.449Z,3.59
2022-12-26T03:34:19.346Z,3.55
2022-12-26T03:35:21.236Z,3.54
2022-12-26T03:36:31.834Z,3.54
2022-12-26T03:37:51.081Z,3.60
2022-12-26T03:38:55.448Z,3.57
2022-12-26T03:40:42.447Z,3.58
2022-12-26T03:42:29.075Z,3.47
2022-12-26T03:44:14.336Z,3.40
2022-12-26T03:45:43.480Z,3.44
2022-12-26T03:47:32.728Z,3.35
2022-12-26T03:49:13.572Z,3.14
2022-12-26T03:50:56.877Z,3.13
2022-12-26T03:52:45.896Z,3.10
2022-12-26T03:54:17.283Z,3.15
2022-12-26T03:55:53.708Z,3.18
2022-12-26T03:57:37.027Z,2.74
2022-12-26T03:59:05.647Z,2.49
2022-12-26T04:00:29.771Z,2.40
2022-12-26T04:01:54.091Z,2.40
2022-12-26T04:03:21.780Z,2.51
2022-12-26T04:04:45.781Z,2.62
2022-12-26T04:06:08.722Z,2.69
2022-12-26T04:07:35.001Z,2.79
2022-12-26T04:09:07.246Z,2.85
2022-12-26T04:10:35.488Z,2.91
2022-12-26T04:11:58.074Z,2.99
2022-12-26T04:13:22.034Z,3.06
2022-12-26T04:15:19.315Z,3.15
2022-12-26T04:16:52.008Z,3.15
2022-12-26T04:18:20.997Z,3.18
2022-12-26T04:19:52.060Z,3.26
2022-12-26T04:21:07.643Z,3.25
2022-12-26T04:22:33.828Z,3.23
2022-12-26T04:24:01.785Z,3.12
2022-12-26T04:25:49.417Z,2.81
2022-12-26T04:27:16.775Z,2.46
2022-12-26T04:28:41.709Z,2.24
2022-12-26T04:30:02.447Z,2.14
2022-12-26T04:31:35.628Z,2.03
2022-12-26T04:33:05.566Z,1.95
2022-12-26T04:34:34.247Z,1.91
2022-12-26T04:36:11.046Z,1.76
2022-12-26T04:37:41.602Z,1.60
2022-12-26T04:39:07.518Z,1.54
2022-12-26T04:40:35.359Z,1.52
2022-12-26T04:41:56.982Z,1.51
2022-12-26T04:43:48.491Z,1.56
2022-12-26T04:44:41.195Z,1.58
2022-12-26T04:45:43.321Z,1.62
2022-12-26T04:46:48.255Z,1.57
2022-12-26T04:48:09.336Z,1.51
2022-12-26T04:49:33.064Z,1.56
2022-12-26T04:50:34.665Z,1.60
2022-12-26T04:51:36.524Z,1.52
2022-12-26T04:52:58.276Z,1.48
2022-12-26T04:54:00.025Z,1.40
2022-12-26T04:55:01.586Z,1.38
2022-12-26T04:56:03.246Z,1.41
2022-12-26T04:57:05.942Z,1.39
2022-12-26T04:58:07.484Z,1.39
2022-12-26T04:59:09.043Z,1.42
2022-12-26T05:00:11.253Z,1.47
2022-12-26T05:01:31.474Z,1.50
2022-12-26T05:02:56.339Z,1.45
2022-12-26T05:04:16.424Z,1.57
2022-12-26T05:05:36.769Z,1.72
2022-12-26T05:06:57.039Z,1.87
2022-12-26T05:08:17.209Z,2.00
2022-12-26T05:09:35.258Z,2.13
2022-12-26T05:10:36.898Z,2.22
2022-12-26T05:11:38.437Z,2.30
2022-12-26T05:12:39.973Z,2.38
2022-12-26T05:13:41.524Z,2.46
2022-12-26T05:14:43.128Z,2.51
2022-12-26T05:16:03.143Z,2.56
2022-12-26T05:17:27.070Z,2.60
2022-12-26T05:18:47.234Z,2.64
2022-12-26T05:20:07.505Z,2.68
2022-12-26T05:21:36.890Z,2.66
2022-12-26T05:22:59.220Z,2.60
2022-12-26T05:24:19.632Z,2.62
2022-12-26T05:25:45.378Z,2.57
2022-12-26T05:27:05.497Z,2.50
2022-12-26T05:28:29.603Z,2.41
2022-12-26T05:29:31.281Z,2.45
2022-12-26T05:30:32.804Z,2.44
2022-12-26T05:31:36.649Z,2.41
2022-12-26T05:32:57.173Z,2.31
2022-12-26T05:34:08.289Z,2.19
2022-12-26T05:35:10.215Z,2.15
2022-12-26T05:36:13.777Z,2.10
2022-12-26T05:37:15.365Z,2.10
2022-12-26T05:38:17.131Z,2.03
2022-12-26T05:39:19.135Z,2.01
2022-12-26T05:40:20.814Z,1.98
2022-12-26T05:41:23.621Z,1.98
2022-12-26T05:42:25.235Z,1.94
2022-12-26T05:43:26.766Z,1.88
2022-12-26T05:44:28.328Z,1.87
2022-12-26T05:45:29.878Z,1.80
2022-12-26T05:46:31.436Z,1.80
2022-12-26T05:47:33.034Z,1.82
2022-12-26T05:48:34.600Z,1.83
2022-12-26T05:49:36.141Z,1.85
2022-12-26T05:50:37.691Z,1.89
2022-12-26T05:51:39.303Z,1.87
2022-12-26T05:52:40.994Z,1.84
2022-12-26T05:53:42.664Z,1.84
2022-12-26T05:54:44.336Z,1.84
2022-12-26T05:55:45.964Z,1.92
2022-12-26T05:56:49.383Z,2.01
2022-12-26T05:57:52.023Z,2.03
2022-12-26T05:58:59.348Z,1.90
2022-12-26T06:00:01.894Z,1.84
2022-12-26T06:01:16.240Z,1.88
2022-12-26T06:02:18.103Z,2.00
2022-12-26T06:03:19.893Z,2.01
2022-12-26T06:04:21.593Z,2.04
2022-12-26T06:05:23.449Z,2.03
2022-12-26T06:06:26.215Z,1.93
2022-12-26T06:07:28.025Z,1.93
2022-12-26T06:08:29.850Z,1.98
2022-12-26T06:09:31.511Z,2.08
2022-12-26T06:10:33.038Z,2.18
2022-12-26T06:11:34.672Z,2.27
2022-12-26T06:12:36.220Z,2.35
2022-12-26T06:13:40.388Z,2.43
2022-12-26T06:14:41.976Z,2.48
2022-12-26T06:15:43.734Z,2.53
2022-12-26T06:16:45.606Z,2.59
2022-12-26T06:17:47.680Z,2.66
2022-12-26T06:18:49.763Z,2.72
2022-12-26T06:19:51.444Z,2.73
2022-12-26T06:20:53.132Z,2.75
2022-12-26T06:21:54.685Z,2.78
2022-12-26T06:22:56.220Z,2.79
2022-12-26T06:23:57.900Z,2.81
2022-12-26T06:24:59.544Z,2.84
2022-12-26T06:26:01.613Z,2.90
2022-12-26T06:27:03.331Z,2.96
2022-12-26T06:28:04.895Z,2.98
2022-12-26T06:29:10.753Z,2.88
2022-12-26T06:30:13.192Z,2.84
2022-12-26T06:31:21.519Z,2.82
2022-12-26T06:32:23.313Z,2.78
2022-12-26T06:33:24.866Z,2.72
2022-12-26T06:34:27.747Z,2.69
2022-12-26T06:35:29.323Z,2.66
2022-12-26T06:36:31.480Z,2.60
2022-12-26T06:37:33.891Z,2.60
2022-12-26T06:38:36.103Z,2.61
2022-12-26T06:39:37.695Z,2.62
2022-12-26T06:40:42.777Z,2.64
2022-12-26T06:41:44.321Z,2.67
2022-12-26T06:42:45.857Z,2.70
2022-12-26T06:43:47.815Z,2.70
2022-12-26T06:44:49.381Z,2.72
2022-12-26T06:45:58.178Z,2.75
2022-12-26T06:46:59.863Z,2.75
2022-12-26T06:48:02.170Z,2.79
2022-12-26T06:49:06.503Z,2.72
2022-12-26T06:50:08.385Z,2.73
2022-12-26T06:51:13.489Z,2.82
2022-12-26T06:52:15.164Z,2.88
2022-12-26T06:53:16.860Z,2.86
2022-12-26T06:54:18.428Z,2.93
2022-12-26T06:55:19.949Z,3.04
2022-12-26T06:56:24.062Z,3.12
2022-12-26T06:57:25.645Z,3.19
2022-12-26T06:58:27.231Z,3.30
2022-12-26T06:59:28.918Z,3.37
2022-12-26T07:00:30.693Z,3.44
2022-12-26T07:01:35.169Z,3.49
2022-12-26T07:02:36.985Z,3.51
2022-12-26T07:03:42.004Z,3.57
2022-12-26T07:04:48.264Z,3.71
2022-12-26T07:05:50.113Z,3.82
2022-12-26T07:06:51.678Z,3.92
2022-12-26T07:07:53.435Z,4.06
2022-12-26T07:08:59.285Z,4.15
2022-12-26T07:10:00.943Z,4.26
2022-12-26T07:11:02.830Z,4.30
2022-12-26T07:12:04.636Z,4.41
2022-12-26T07:13:06.187Z,4.49
2022-12-26T07:14:08.678Z,4.58
2022-12-26T07:15:11.719Z,4.65
2022-12-26T07:16:13.827Z,4.77
2022-12-26T07:17:15.416Z,4.83
2022-12-26T07:18:16.989Z,4.90
2022-12-26T07:19:18.549Z,4.94
2022-12-26T07:20:20.161Z,4.96
2022-12-26T07:21:22.652Z,5.02
2022-12-26T07:22:24.239Z,5.01
2022-12-26T07:23:25.973Z,5.00
2022-12-26T07:24:27.638Z,4.88
2022-12-26T07:25:29.160Z,4.80
2022-12-26T07:26:31.169Z,4.64
2022-12-26T07:27:32.690Z,4.77
2022-12-26T07:28:34.438Z,4.71
2022-12-26T07:29:36.156Z,4.64
2022-12-26T07:30:37.685Z,4.60
2022-12-26T07:31:40.146Z,4.62
2022-12-26T07:32:41.777Z,4.70
2022-12-26T07:33:43.630Z,4.65
2022-12-26T07:34:45.284Z,4.48
2022-12-26T07:35:47.151Z,4.45
2022-12-26T07:36:48.704Z,4.12
2022-12-26T07:37:50.219Z,4.10
2022-12-26T07:38:52.161Z,4.02
2022-12-26T07:39:58.883Z,4.12
2022-12-26T07:41:21.287Z,4.02
2022-12-26T07:42:22.798Z,4.13
2022-12-26T07:43:25.649Z,4.23
2022-12-26T07:44:32.821Z,4.26
2022-12-26T07:45:34.679Z,4.36
2022-12-26T07:46:38.192Z,4.40
2022-12-26T07:47:39.815Z,4.37
2022-12-26T07:48:41.534Z,4.50
2022-12-26T07:49:43.129Z,4.63
2022-12-26T07:50:49.368Z,4.77
2022-12-26T07:51:52.025Z,4.81
2022-12-26T07:52:54.347Z,4.90
2022-12-26T07:53:55.994Z,5.07
2022-12-26T07:54:58.005Z,5.28
2022-12-26T07:56:00.060Z,5.40
2022-12-26T07:57:29.803Z,5.51
2022-12-26T07:58:23.215Z,5.60
2022-12-26T07:59:24.863Z,5.51
2022-12-26T08:00:28.843Z,5.35
2022-12-26T08:01:32.092Z,5.24
2022-12-26T08:02:34.881Z,5.31
2022-12-26T08:03:36.729Z,5.30
2022-12-26T08:04:38.362Z,5.29
2022-12-26T08:05:40.364Z,5.39
2022-12-26T08:06:43.033Z,5.53
2022-12-26T08:07:47.684Z,5.73
2022-12-26T08:08:51.665Z,5.87
2022-12-26T08:09:53.400Z,6.00
2022-12-26T08:11:09.083Z,6.04
2022-12-26T08:12:11.397Z,6.11
2022-12-26T08:13:12.943Z,6.19
2022-12-26T08:14:16.724Z,6.34
2022-12-26T08:15:18.612Z,6.51
2022-12-26T08:16:21.149Z,6.63
2022-12-26T08:17:22.748Z,6.70
2022-12-26T08:18:25.606Z,6.66
2022-12-26T08:19:27.148Z,6.68
2022-12-26T08:20:28.729Z,6.78
2022-12-26T08:21:31.006Z,6.82
2022-12-26T08:22:32.559Z,6.70
2022-12-26T08:23:34.620Z,6.52
2022-12-26T08:24:36.393Z,6.50
2022-12-26T08:25:38.014Z,6.48
2022-12-26T08:26:40.259Z,6.56
2022-12-26T08:27:41.951Z,6.69
2022-12-26T08:28:43.702Z,6.90
2022-12-26T08:29:45.370Z,7.11
2022-12-26T08:30:47.070Z,7.25
2022-12-26T08:31:48.652Z,7.31
2022-12-26T08:32:51.344Z,7.31
2022-12-26T08:33:56.996Z,7.45
2022-12-26T08:34:59.408Z,7.43
2022-12-26T08:36:10.785Z,7.54
2022-12-26T08:37:12.361Z,7.59
2022-12-26T08:38:13.895Z,7.67
2022-12-26T08:39:15.413Z,7.68
2022-12-26T08:40:26.711Z,7.53
2022-12-26T08:41:34.301Z,7.51
2022-12-26T08:42:44.701Z,7.56
2022-12-26T08:45:14.691Z,7.50
2022-12-26T08:46:17.677Z,7.48
2022-12-26T08:47:19.288Z,7.51
2022-12-26T08:48:20.814Z,7.50
2022-12-26T08:49:22.332Z,7.40
2022-12-26T08:50:24.012Z,7.45
2022-12-26T08:51:25.904Z,7.37
2022-12-26T08:52:27.729Z,7.23
2022-12-26T08:53:30.792Z,7.26
2022-12-26T08:54:32.449Z,7.38
2022-12-26T08:55:34.047Z,7.43
2022-12-26T08:56:35.640Z,7.36
2022-12-26T08:57:37.187Z,6.94
2022-12-26T08:58:38.769Z,6.94
2022-12-26T08:59:40.396Z,7.04
2022-12-26T09:00:41.935Z,7.15
2022-12-26T09:01:43.531Z,7.24
2022-12-26T09:02:45.276Z,7.33
2022-12-26T09:03:47.504Z,7.41
2022-12-26T09:04:49.109Z,7.58
2022-12-26T09:05:50.697Z,7.68
2022-12-26T09:06:52.251Z,7.75
2022-12-26T09:07:53.744Z,7.89
2022-12-26T09:08:55.705Z,7.82
2022-12-26T09:09:57.823Z,7.75
2022-12-26T09:11:20.966Z,7.90
2022-12-26T09:12:22.644Z,8.01
2022-12-26T09:13:30.510Z,8.12
2022-12-26T09:14:32.158Z,8.04
2022-12-26T09:15:33.703Z,7.89
2022-12-26T09:16:49.168Z,7.62
2022-12-26T09:17:51.558Z,7.68
2022-12-26T09:18:55.651Z,7.86
2022-12-26T09:19:57.214Z,7.88
2022-12-26T09:21:04.278Z,7.96
2022-12-26T09:22:24.460Z,7.96
2022-12-26T09:23:26.011Z,7.77
2022-12-26T09:24:27.668Z,7.82
2022-12-26T09:25:29.435Z,7.75
2022-12-26T09:26:31.007Z,7.75
2022-12-26T09:27:32.521Z,7.77
2022-12-26T09:28:34.711Z,7.75
2022-12-26T09:29:38.338Z,7.92
2022-12-26T09:30:39.981Z,8.18
2022-12-26T09:31:41.639Z,8.39
2022-12-26T09:32:43.236Z,8.59
2022-12-26T09:33:47.192Z,8.74
2022-12-26T09:34:49.493Z,8.85
2022-12-26T09:35:51.032Z,8.69
2022-12-26T09:36:52.632Z,8.31
2022-12-26T09:37:54.271Z,8.05
2022-12-26T09:38:57.542Z,8.16
2022-12-26T09:39:59.221Z,8.27
2022-12-26T09:41:19.162Z,8.19
2022-12-26T09:42:29.662Z,8.28
2022-12-26T09:43:50.075Z,8.39
2022-12-26T09:45:18.367Z,8.53
2022-12-26T09:46:39.128Z,8.43
2022-12-26T09:48:00.330Z,8.54
2022-12-26T09:49:18.779Z,8.44
2022-12-26T09:50:34.477Z,8.29
2022-12-26T09:51:42.315Z,8.16
2022-12-26T09:52:57.976Z,8.15
2022-12-26T09:54:02.065Z,8.02
2022-12-26T09:55:16.578Z,7.83
2022-12-26T09:57:01.155Z,7.99
2022-12-26T09:57:47.810Z,8.06
2022-12-26T09:58:54.967Z,8.21
2022-12-26T09:59:59.021Z,8.32
2022-12-26T10:01:11.108Z,8.34
2022-12-26T10:02:21.817Z,8.57
2022-12-26T10:03:24.057Z,8.60
2022-12-26T10:04:30.005Z,8.68
2022-12-26T10:05:46.541Z,8.78
2022-12-26T10:07:01.305Z,8.61
2022-12-26T10:08:32.414Z,8.43
2022-12-26T10:09:43.197Z,8.44
2022-12-26T10:11:00.372Z,8.49
2022-12-26T10:12:04.926Z,8.58
2022-12-26T10:13:24.738Z,8.78
2022-12-26T10:15:16.545Z,8.94
2022-12-26T10:16:35.058Z,9.06
2022-12-26T10:17:45.941Z,9.10
2022-12-26T10:19:04.353Z,8.95
2022-12-26T10:20:26.821Z,8.81
2022-12-26T10:21:28.332Z,8.61
2022-12-26T10:23:03.572Z,8.59
2022-12-26T10:24:20.467Z,8.70
2022-12-26T10:25:33.708Z,8.77
2022-12-26T10:26:41.152Z,8.65
2022-12-26T10:27:45.704Z,8.70
2022-12-26T10:28:53.224Z,8.67
2022-12-26T10:30:05.379Z,8.79
2022-12-26T10:31:27.739Z,8.96
2022-12-26T10:32:44.214Z,9.18
2022-12-26T10:34:04.277Z,9.29
2022-12-26T10:35:22.553Z,9.31
2022-12-26T10:36:35.304Z,9.41
2022-12-26T10:37:40.984Z,9.47
2022-12-26T10:38:48.040Z,9.46
2022-12-26T10:39:59.183Z,9.32
2022-12-26T10:41:11.511Z,9.25
2022-12-26T10:42:26.481Z,9.32
2022-12-26T10:43:34.199Z,9.28
2022-12-26T10:44:35.886Z,9.29
2022-12-26T10:45:48.902Z,9.34
2022-12-26T10:47:10.371Z,9.39
2022-12-26T10:48:16.282Z,9.38
2022-12-26T10:49:21.956Z,9.39
2022-12-26T10:50:28.021Z,9.24
2022-12-26T10:51:30.234Z,9.06
2022-12-26T10:52:37.692Z,9.03
2022-12-26T10:53:46.543Z,9.05
2022-12-26T10:55:29.612Z,9.04
2022-12-26T10:56:18.441Z,9.14
2022-12-26T10:57:21.088Z,9.26
2022-12-26T10:58:32.506Z,9.22
2022-12-26T10:59:52.579Z,9.23
2022-12-26T11:00:54.619Z,9.27
2022-12-26T11:02:13.549Z,9.46
2022-12-26T11:03:18.664Z,9.55
2022-12-26T11:05:02.015Z,9.64
2022-12-26T11:07:12.962Z,9.60
2022-12-26T11:08:43.300Z,9.53
2022-12-26T11:09:46.137Z,9.88
2022-12-26T11:11:06.372Z,10.11
2022-12-26T11:12:20.893Z,10.41
2022-12-26T11:13:23.467Z,10.68
2022-12-26T11:14:33.251Z,10.89
2022-12-26T11:15:40.905Z,10.79
2022-12-26T11:16:43.232Z,10.73
2022-12-26T11:17:47.075Z,10.78
2022-12-26T11:18:52.047Z,10.79
2022-12-26T11:20:28.972Z,10.64
2022-12-26T11:21:32.345Z,10.64
2022-12-26T11:22:35.058Z,10.61
2022-12-26T11:23:36.894Z,10.52
2022-12-26T11:24:38.536Z,10.53
2022-12-26T11:25:53.204Z,10.59
2022-12-26T11:27:16.831Z,10.65
2022-12-26T11:28:27.385Z,10.77
2022-12-26T11:29:29.261Z,10.83
2022-12-26T11:30:39.064Z,10.87
2022-12-26T11:31:43.501Z,10.89
2022-12-26T11:32:50.007Z,10.92
2022-12-26T11:33:52.112Z,10.94
2022-12-26T11:34:53.865Z,11.00
2022-12-26T11:36:05.325Z,10.99
2022-12-26T11:37:21.961Z,11.01
2022-12-26T11:38:43.969Z,11.03
2022-12-26T11:39:50.631Z,11.05
2022-12-26T11:41:12.412Z,11.07
2022-12-26T11:42:22.508Z,11.08
2022-12-26T11:43:26.112Z,11.03
2022-12-26T11:44:31.745Z,10.96
2022-12-26T11:45:42.444Z,10.93
2022-12-26T11:47:08.329Z,10.92
2022-12-26T11:48:25.142Z,10.97
2022-12-26T11:49:35.919Z,10.99
2022-12-26T11:50:46.700Z,10.95
2022-12-26T11:51:54.184Z,10.92
2022-12-26T11:53:00.287Z,10.86
2022-12-26T11:54:25.595Z,10.80
2022-12-26T11:55:34.671Z,10.75
2022-12-26T11:56:36.349Z,10.73
2022-12-26T11:57:38.108Z,10.82
2022-12-26T11:58:39.855Z,10.88
2022-12-26T11:59:41.485Z,10.93
2022-12-26T12:01:06.442Z,10.82
2022-12-26T12:02:25.366Z,10.75
2022-12-26T12:03:36.749Z,10.85
2022-12-26T12:04:38.793Z,10.92
2022-12-26T12:06:08.357Z,10.88
2022-12-26T12:07:47.268Z,10.76
2022-12-26T12:09:26.161Z,10.72
2022-12-26T12:10:49.585Z,10.77
2022-12-26T12:12:21.698Z,10.87
2022-12-26T12:13:39.179Z,10.86
2022-12-26T12:14:50.880Z,10.84
2022-12-26T12:16:26.888Z,10.91
2022-12-26T12:17:48.717Z,10.96
2022-12-26T12:18:59.299Z,10.97
2022-12-26T12:20:27.099Z,11.01
2022-12-26T12:21:34.364Z,11.10
2022-12-26T12:23:12.480Z,11.16
2022-12-26T12:24:58.721Z,11.07
2022-12-26T12:26:17.695Z,11.07
2022-12-26T12:27:46.135Z,11.08
2022-12-26T12:29:38.444Z,11.03
2022-12-26T12:31:00.308Z,10.98
2022-12-26T12:32:17.511Z,10.99
2022-12-26T12:33:41.117Z,11.06
2022-12-26T12:34:51.350Z,11.31
2022-12-26T12:36:09.905Z,11.38
2022-12-26T12:37:39.175Z,11.44
2022-12-26T12:39:02.585Z,11.30
2022-12-26T12:40:36.005Z,11.34
2022-12-26T12:41:56.381Z,11.39
2022-12-26T12:43:10.633Z,11.37
2022-12-26T12:44:25.926Z,11.34
2022-12-26T12:45:43.817Z,11.38
2022-12-26T12:47:14.218Z,11.40
2022-12-26T12:48:24.866Z,11.45
2022-12-26T12:49:35.526Z,11.46
2022-12-26T12:50:54.662Z,11.48
2022-12-26T12:52:27.233Z,11.41
2022-12-26T12:53:51.033Z,11.45
2022-12-26T12:55:20.811Z,11.54
2022-12-26T12:56:51.778Z,11.55
2022-12-26T12:58:11.867Z,11.58
2022-12-26T12:59:28.996Z,11.61
2022-12-26T13:00:51.029Z,11.63
2022-12-26T13:02:00.476Z,11.53
2022-12-26T13:03:35.255Z,11.55
2022-12-26T13:04:55.042Z,11.59
2022-12-26T13:06:09.223Z,11.59
2022-12-26T13:07:36.060Z,11.66
2022-12-26T13:08:48.968Z,11.71
2022-12-26T13:10:00.930Z,11.74
2022-12-26T13:11:33.577Z,11.78
2022-12-26T13:12:41.441Z,11.81
2022-12-26T13:13:53.788Z,11.82
2022-12-26T13:15:01.491Z,11.86
2022-12-26T13:16:13.763Z,11.88
2022-12-26T13:17:23.939Z,11.90
2022-12-26T13:18:34.188Z,11.87
2022-12-26T13:19:43.198Z,11.85
2022-12-26T13:20:55.272Z,11.88
2022-12-26T13:22:03.712Z,11.88
2022-12-26T13:23:32.030Z,11.93
2022-12-26T13:24:40.653Z,12.01
2022-12-26T13:25:46.897Z,11.98
2022-12-26T13:26:55.726Z,12.00
2022-12-26T13:28:09.641Z,12.06
2022-12-26T13:29:38.669Z,12.11
2022-12-26T13:30:40.355Z,12.16
2022-12-26T13:31:43.159Z,12.16
2022-12-26T13:32:46.773Z,12.16
2022-12-26T13:33:48.684Z,12.16
2022-12-26T13:34:53.096Z,12.19
2022-12-26T13:36:05.344Z,12.22
2022-12-26T13:37:47.048Z,12.24
2022-12-26T13:39:03.486Z,12.31
2022-12-26T13:40:11.030Z,12.32
2022-12-26T13:41:36.065Z,12.33
2022-12-26T13:43:14.241Z,12.42
2022-12-26T13:44:18.543Z,12.44
2022-12-26T13:45:38.176Z,12.46
2022-12-26T13:46:43.039Z,12.45
2022-12-26T13:47:44.619Z,12.43
2022-12-26T13:48:56.054Z,12.46
2022-12-26T13:49:57.680Z,12.46
2022-12-26T13:51:04.847Z,12.42
2022-12-26T13:52:12.177Z,12.37
2022-12-26T13:53:25.543Z,12.43
2022-12-26T13:54:28.900Z,12.44
2022-12-26T13:55:42.127Z,12.45
2022-12-26T13:56:46.000Z,12.39
2022-12-26T13:58:20.765Z,12.40
2022-12-26T13:59:36.154Z,12.42
2022-12-26T14:00:48.093Z,12.51
2022-12-26T14:02:19.350Z,12.51
2022-12-26T14:03:31.621Z,12.44
2022-12-26T14:04:59.975Z,12.46
2022-12-26T14:06:14.585Z,12.43
2022-12-26T14:07:50.244Z,12.39
2022-12-26T14:09:24.144Z,12.33
2022-12-26T14:10:28.633Z,12.39
2022-12-26T14:11:59.695Z,12.34
2022-12-26T14:13:26.226Z,12.34
2022-12-26T14:14:42.803Z,12.33
2022-12-26T14:16:02.315Z,12.31
2022-12-26T14:17:34.334Z,12.26
2022-12-26T14:18:41.407Z,12.23
2022-12-26T14:20:11.416Z,12.20
2022-12-26T14:21:25.125Z,12.25
2022-12-26T14:22:26.600Z,12.23
2022-12-26T14:23:46.297Z,12.14
2022-12-26T14:25:19.212Z,12.11
2022-12-26T14:26:57.803Z,12.16
2022-12-26T14:28:20.213Z,12.16
2022-12-26T14:29:58.648Z,12.10
2022-12-26T14:31:22.309Z,12.06
2022-12-26T14:32:50.211Z,12.12
2022-12-26T14:34:10.870Z,12.09
2022-12-26T14:35:38.775Z,12.07
2022-12-26T14:36:50.046Z,12.01
2022-12-26T14:38:17.961Z,11.96
2022-12-26T14:39:32.349Z,11.92
2022-12-26T14:40:37.327Z,11.93
2022-12-26T14:42:25.622Z,11.93
2022-12-26T14:43:34.961Z,11.87
2022-12-26T14:44:39.231Z,11.84
2022-12-26T14:45:45.817Z,11.83
2022-12-26T14:46:50.349Z,11.83
2022-12-26T14:47:52.265Z,11.79
2022-12-26T14:48:57.178Z,11.78
2022-12-26T14:49:59.014Z,11.70
2022-12-26T14:51:03.275Z,11.69
2022-12-26T14:52:23.603Z,11.66
2022-12-26T14:53:27.156Z,11.61
2022-12-26T14:54:37.935Z,11.59
2022-12-26T14:55:49.983Z,11.60
2022-12-26T14:56:52.506Z,11.55
2022-12-26T14:57:54.463Z,11.52
2022-12-26T14:59:20.668Z,11.53
2022-12-26T15:00:22.185Z,11.50
2022-12-26T15:01:23.829Z,11.48
2022-12-26T15:02:34.345Z,11.43
2022-12-26T15:03:54.197Z,11.42
2022-12-26T15:04:58.656Z,11.41
2022-12-26T15:06:20.735Z,11.34
2022-12-26T15:07:53.093Z,11.32
2022-12-26T15:09:09.935Z,11.29
2022-12-26T15:10:29.858Z,11.27
2022-12-26T15:11:43.532Z,11.28
2022-12-26T15:13:22.535Z,11.20
2022-12-26T15:14:35.651Z,11.19
2022-12-26T15:16:03.438Z,11.15
2022-12-26T15:17:13.839Z,11.20
2022-12-26T15:18:42.824Z,11.21
2022-12-26T15:19:50.883Z,11.13
2022-12-26T15:21:21.571Z,11.06
2022-12-26T15:22:35.035Z,11.03
2022-12-26T15:23:58.396Z,10.94
2022-12-26T15:25:19.994Z,10.94
2022-12-26T15:26:41.945Z,10.88
2022-12-26T15:28:01.756Z,10.80
2022-12-26T15:29:24.783Z,10.74
2022-12-26T15:31:03.794Z,10.73
2022-12-26T15:32:13.071Z,10.71
2022-12-26T15:33:45.719Z,10.64
2022-12-26T15:35:06.068Z,10.57
2022-12-26T15:36:19.699Z,10.52
2022-12-26T15:37:49.087Z,10.45
2022-12-26T15:39:19.430Z,10.37
2022-12-26T15:40:24.917Z,10.30
2022-12-26T15:41:32.151Z,10.27
2022-12-26T15:42:58.612Z,10.27
2022-12-26T15:44:18.749Z,10.20
2022-12-26T15:45:45.191Z,10.16